sensor_id;sensor_type;location;lat;lon;timestamp;P1;durP1;ratioP1;P2;durP2;ratioP2
59024;SDS011;44806;48.008;13.666;2023-10-31T00:00:51;4.38;;;1.65;;
59024;SDS011;44806;48.008;13.666;2023-10-31T00:03:18;3.95;;;1.42;;
59024;SDS011;44806;48.008;13.666;2023-10-31T00:05:47;4.50;;;1.60;;
59024;SDS011;44806;48.008;13.666;2023-10-31T00:08:14;4.35;;;1.55;;
59024;SDS011;44806;48.008;13.666;2023-10-31T00:10:41;2.40;;;1.08;;
59024;SDS011;44806;48.008;13.666;2023-10-31T00:13:10;2.90;;;1.05;;
59024;SDS011;44806;48.008;13.666;2023-10-31T00:15:40;4.15;;;1.50;;
59024;SDS011;44806;48.008;13.666;2023-10-31T00:18:07;4.05;;;1.40;;
59024;SDS011;44806;48.008;13.666;2023-10-31T00:20:34;4.25;;;1.55;;
59024;SDS011;44806;48.008;13.666;2023-10-31T00:23:02;4.72;;;1.85;;
59024;SDS011;44806;48.008;13.666;2023-10-31T00:25:29;3.72;;;1.60;;
59024;SDS011;44806;48.008;13.666;2023-10-31T00:27:56;5.95;;;1.80;;
59024;SDS011;44806;48.008;13.666;2023-10-31T00:30:23;5.78;;;2.17;;
59024;SDS011;44806;48.008;13.666;2023-10-31T00:32:50;5.43;;;2.65;;
59024;SDS011;44806;48.008;13.666;2023-10-31T00:35:17;10.20;;;3.20;;
59024;SDS011;44806;48.008;13.666;2023-10-31T00:37:44;5.93;;;2.65;;
59024;SDS011;44806;48.008;13.666;2023-10-31T00:40:12;6.05;;;2.60;;
59024;SDS011;44806;48.008;13.666;2023-10-31T00:42:41;4.65;;;2.17;;
59024;SDS011;44806;48.008;13.666;2023-10-31T00:45:08;7.45;;;3.30;;
59024;SDS011;44806;48.008;13.666;2023-10-31T00:47:35;6.65;;;3.47;;
59024;SDS011;44806;48.008;13.666;2023-10-31T00:50:03;8.13;;;3.45;;
59024;SDS011;44806;48.008;13.666;2023-10-31T00:52:30;5.78;;;3.03;;
59024;SDS011;44806;48.008;13.666;2023-10-31T00:54:57;8.27;;;3.97;;
59024;SDS011;44806;48.008;13.666;2023-10-31T00:57:26;7.05;;;3.28;;
59024;SDS011;44806;48.008;13.666;2023-10-31T00:59:53;8.05;;;3.22;;
59024;SDS011;44806;48.008;13.666;2023-10-31T01:02:20;8.40;;;3.42;;
59024;SDS011;44806;48.008;13.666;2023-10-31T01:04:46;12.77;;;3.60;;
59024;SDS011;44806;48.008;13.666;2023-10-31T01:07:13;11.55;;;3.55;;
59024;SDS011;44806;48.008;13.666;2023-10-31T01:09:42;7.90;;;3.50;;
59024;SDS011;44806;48.008;13.666;2023-10-31T01:12:09;8.75;;;3.20;;
59024;SDS011;44806;48.008;13.666;2023-10-31T01:14:38;7.30;;;3.33;;
59024;SDS011;44806;48.008;13.666;2023-10-31T01:17:05;8.48;;;3.85;;
59024;SDS011;44806;48.008;13.666;2023-10-31T01:19:32;6.70;;;3.10;;
59024;SDS011;44806;48.008;13.666;2023-10-31T01:21:59;5.90;;;2.53;;
59024;SDS011;44806;48.008;13.666;2023-10-31T01:24:26;5.38;;;2.22;;
59024;SDS011;44806;48.008;13.666;2023-10-31T01:26:52;5.18;;;2.30;;
59024;SDS011;44806;48.008;13.666;2023-10-31T01:29:19;6.45;;;1.95;;
59024;SDS011;44806;48.008;13.666;2023-10-31T01:31:48;3.60;;;1.50;;
59024;SDS011;44806;48.008;13.666;2023-10-31T01:34:14;4.30;;;1.67;;
59024;SDS011;44806;48.008;13.666;2023-10-31T01:36:41;3.72;;;1.42;;
59024;SDS011;44806;48.008;13.666;2023-10-31T01:39:08;3.60;;;1.10;;
59024;SDS011;44806;48.008;13.666;2023-10-31T01:41:35;4.07;;;1.58;;
59024;SDS011;44806;48.008;13.666;2023-10-31T01:44:02;4.78;;;1.98;;
59024;SDS011;44806;48.008;13.666;2023-10-31T01:46:30;3.95;;;1.52;;
59024;SDS011;44806;48.008;13.666;2023-10-31T01:48:58;5.85;;;1.67;;
59024;SDS011;44806;48.008;13.666;2023-10-31T01:51:25;3.90;;;1.67;;
59024;SDS011;44806;48.008;13.666;2023-10-31T01:53:52;4.32;;;1.38;;
59024;SDS011;44806;48.008;13.666;2023-10-31T01:56:19;4.38;;;1.60;;
59024;SDS011;44806;48.008;13.666;2023-10-31T01:58:47;4.03;;;1.88;;
59024;SDS011;44806;48.008;13.666;2023-10-31T02:01:15;3.20;;;1.30;;
59024;SDS011;44806;48.008;13.666;2023-10-31T02:03:42;4.10;;;1.60;;
59024;SDS011;44806;48.008;13.666;2023-10-31T02:06:11;3.92;;;1.02;;
59024;SDS011;44806;48.008;13.666;2023-10-31T02:08:38;3.30;;;0.98;;
59024;SDS011;44806;48.008;13.666;2023-10-31T02:11:05;2.28;;;0.75;;
59024;SDS011;44806;48.008;13.666;2023-10-31T02:13:35;1.88;;;0.65;;
59024;SDS011;44806;48.008;13.666;2023-10-31T02:16:02;1.65;;;0.70;;
59024;SDS011;44806;48.008;13.666;2023-10-31T02:18:29;2.20;;;0.68;;
59024;SDS011;44806;48.008;13.666;2023-10-31T02:20:56;2.97;;;1.25;;
59024;SDS011;44806;48.008;13.666;2023-10-31T02:23:25;2.50;;;0.82;;
59024;SDS011;44806;48.008;13.666;2023-10-31T02:25:52;2.40;;;1.02;;
59024;SDS011;44806;48.008;13.666;2023-10-31T02:28:19;2.88;;;0.90;;
59024;SDS011;44806;48.008;13.666;2023-10-31T02:30:45;1.02;;;0.43;;
59024;SDS011;44806;48.008;13.666;2023-10-31T02:33:11;0.88;;;0.45;;
59024;SDS011;44806;48.008;13.666;2023-10-31T02:35:38;1.60;;;0.40;;
59024;SDS011;44806;48.008;13.666;2023-10-31T02:38:05;0.90;;;0.35;;
59024;SDS011;44806;48.008;13.666;2023-10-31T02:40:33;0.73;;;0.30;;
59024;SDS011;44806;48.008;13.666;2023-10-31T02:43:00;1.35;;;0.52;;
59024;SDS011;44806;48.008;13.666;2023-10-31T02:45:27;1.48;;;0.63;;
59024;SDS011;44806;48.008;13.666;2023-10-31T02:47:54;0.73;;;0.30;;
59024;SDS011;44806;48.008;13.666;2023-10-31T02:50:22;0.65;;;0.38;;
59024;SDS011;44806;48.008;13.666;2023-10-31T02:52:49;0.77;;;0.40;;
59024;SDS011;44806;48.008;13.666;2023-10-31T02:55:15;0.70;;;0.22;;
59024;SDS011;44806;48.008;13.666;2023-10-31T02:57:44;0.90;;;0.30;;
59024;SDS011;44806;48.008;13.666;2023-10-31T03:00:11;0.70;;;0.35;;
59024;SDS011;44806;48.008;13.666;2023-10-31T03:02:39;0.50;;;0.20;;
59024;SDS011;44806;48.008;13.666;2023-10-31T03:05:06;0.47;;;0.13;;
59024;SDS011;44806;48.008;13.666;2023-10-31T03:07:33;0.52;;;0.13;;
59024;SDS011;44806;48.008;13.666;2023-10-31T03:10:00;0.63;;;0.22;;
59024;SDS011;44806;48.008;13.666;2023-10-31T03:12:27;0.43;;;0.10;;
59024;SDS011;44806;48.008;13.666;2023-10-31T03:14:56;0.35;;;0.10;;
59024;SDS011;44806;48.008;13.666;2023-10-31T03:17:23;0.20;;;0.10;;
59024;SDS011;44806;48.008;13.666;2023-10-31T03:19:50;0.80;;;0.22;;
59024;SDS011;44806;48.008;13.666;2023-10-31T03:22:17;0.50;;;0.10;;
59024;SDS011;44806;48.008;13.666;2023-10-31T03:24:44;0.30;;;0.10;;
59024;SDS011;44806;48.008;13.666;2023-10-31T03:27:11;0.10;;;0.10;;
59024;SDS011;44806;48.008;13.666;2023-10-31T03:29:38;0.10;;;0.00;;
59024;SDS011;44806;48.008;13.666;2023-10-31T03:34:41;0.08;;;0.00;;
59024;SDS011;44806;48.008;13.666;2023-10-31T03:37:08;0.45;;;0.10;;
59024;SDS011;44806;48.008;13.666;2023-10-31T03:39:35;0.57;;;0.20;;
59024;SDS011;44806;48.008;13.666;2023-10-31T03:42:02;0.03;;;0.00;;
59024;SDS011;44806;48.008;13.666;2023-10-31T03:44:30;0.30;;;0.10;;
59024;SDS011;44806;48.008;13.666;2023-10-31T03:46:57;0.35;;;0.10;;
59024;SDS011;44806;48.008;13.666;2023-10-31T03:49:24;0.40;;;0.00;;
59024;SDS011;44806;48.008;13.666;2023-10-31T03:51:52;0.00;;;0.00;;
59024;SDS011;44806;48.008;13.666;2023-10-31T03:54:19;0.15;;;0.00;;
59024;SDS011;44806;48.008;13.666;2023-10-31T03:56:46;0.00;;;0.00;;
59024;SDS011;44806;48.008;13.666;2023-10-31T03:59:13;0.00;;;0.00;;
59024;SDS011;44806;48.008;13.666;2023-10-31T04:01:40;0.28;;;0.00;;
59024;SDS011;44806;48.008;13.666;2023-10-31T04:04:07;0.00;;;0.00;;
59024;SDS011;44806;48.008;13.666;2023-10-31T04:06:34;0.17;;;0.00;;
59024;SDS011;44806;48.008;13.666;2023-10-31T04:09:06;0.00;;;0.00;;
59024;SDS011;44806;48.008;13.666;2023-10-31T04:11:33;0.00;;;0.00;;
59024;SDS011;44806;48.008;13.666;2023-10-31T04:14:00;0.63;;;0.10;;
59024;SDS011;44806;48.008;13.666;2023-10-31T04:16:28;0.38;;;0.10;;
59024;SDS011;44806;48.008;13.666;2023-10-31T04:18:55;0.00;;;0.00;;
59024;SDS011;44806;48.008;13.666;2023-10-31T04:21:22;0.00;;;0.00;;
59024;SDS011;44806;48.008;13.666;2023-10-31T04:23:49;0.00;;;0.00;;
59024;SDS011;44806;48.008;13.666;2023-10-31T04:26:17;0.00;;;0.00;;
59024;SDS011;44806;48.008;13.666;2023-10-31T04:28:44;0.10;;;0.05;;
59024;SDS011;44806;48.008;13.666;2023-10-31T04:31:11;0.22;;;0.08;;
59024;SDS011;44806;48.008;13.666;2023-10-31T04:33:38;0.32;;;0.10;;
59024;SDS011;44806;48.008;13.666;2023-10-31T04:36:05;0.30;;;0.10;;
59024;SDS011;44806;48.008;13.666;2023-10-31T04:38:32;0.00;;;0.00;;
59024;SDS011;44806;48.008;13.666;2023-10-31T04:41:02;0.00;;;0.00;;
59024;SDS011;44806;48.008;13.666;2023-10-31T04:43:31;0.25;;;0.10;;
59024;SDS011;44806;48.008;13.666;2023-10-31T04:45:58;2.72;;;0.10;;
59024;SDS011;44806;48.008;13.666;2023-10-31T04:48:25;0.20;;;0.10;;
59024;SDS011;44806;48.008;13.666;2023-10-31T04:50:51;0.10;;;0.00;;
59024;SDS011;44806;48.008;13.666;2023-10-31T04:53:19;0.38;;;0.05;;
59024;SDS011;44806;48.008;13.666;2023-10-31T04:55:46;0.30;;;0.03;;
59024;SDS011;44806;48.008;13.666;2023-10-31T04:58:12;0.00;;;0.00;;
59024;SDS011;44806;48.008;13.666;2023-10-31T05:00:41;0.00;;;0.00;;
59024;SDS011;44806;48.008;13.666;2023-10-31T05:03:09;0.13;;;0.08;;
59024;SDS011;44806;48.008;13.666;2023-10-31T05:05:36;0.30;;;0.10;;
59024;SDS011;44806;48.008;13.666;2023-10-31T05:08:03;0.32;;;0.10;;
59024;SDS011;44806;48.008;13.666;2023-10-31T05:10:30;0.10;;;0.10;;
59024;SDS011;44806;48.008;13.666;2023-10-31T05:12:57;0.20;;;0.10;;
59024;SDS011;44806;48.008;13.666;2023-10-31T05:15:23;0.82;;;0.20;;
59024;SDS011;44806;48.008;13.666;2023-10-31T05:17:52;0.25;;;0.10;;
59024;SDS011;44806;48.008;13.666;2023-10-31T05:20:19;0.00;;;0.00;;
59024;SDS011;44806;48.008;13.666;2023-10-31T05:22:46;1.00;;;0.17;;
59024;SDS011;44806;48.008;13.666;2023-10-31T05:25:13;0.10;;;0.10;;
59024;SDS011;44806;48.008;13.666;2023-10-31T05:27:40;4.80;;;0.20;;
59024;SDS011;44806;48.008;13.666;2023-10-31T05:30:07;0.55;;;0.32;;
59024;SDS011;44806;48.008;13.666;2023-10-31T05:32:34;0.70;;;0.13;;
59024;SDS011;44806;48.008;13.666;2023-10-31T05:35:03;0.20;;;0.10;;
59024;SDS011;44806;48.008;13.666;2023-10-31T05:37:30;0.10;;;0.10;;
59024;SDS011;44806;48.008;13.666;2023-10-31T05:39:57;0.25;;;0.00;;
59024;SDS011;44806;48.008;13.666;2023-10-31T05:42:25;0.00;;;0.00;;
59024;SDS011;44806;48.008;13.666;2023-10-31T05:44:52;0.32;;;0.10;;
59024;SDS011;44806;48.008;13.666;2023-10-31T05:47:20;0.52;;;0.13;;
59024;SDS011;44806;48.008;13.666;2023-10-31T05:49:47;0.20;;;0.10;;
59024;SDS011;44806;48.008;13.666;2023-10-31T05:52:15;0.32;;;0.10;;
59024;SDS011;44806;48.008;13.666;2023-10-31T05:54:44;0.28;;;0.10;;
59024;SDS011;44806;48.008;13.666;2023-10-31T05:57:11;0.10;;;0.10;;
59024;SDS011;44806;48.008;13.666;2023-10-31T05:59:38;0.00;;;0.00;;
59024;SDS011;44806;48.008;13.666;2023-10-31T06:02:05;0.50;;;0.10;;
59024;SDS011;44806;48.008;13.666;2023-10-31T06:04:32;0.32;;;0.20;;
59024;SDS011;44806;48.008;13.666;2023-10-31T06:06:58;0.00;;;0.00;;
59024;SDS011;44806;48.008;13.666;2023-10-31T06:09:26;0.10;;;0.10;;
59024;SDS011;44806;48.008;13.666;2023-10-31T06:11:53;0.30;;;0.17;;
59024;SDS011;44806;48.008;13.666;2023-10-31T06:14:20;0.35;;;0.10;;
59024;SDS011;44806;48.008;13.666;2023-10-31T06:16:47;1.70;;;0.32;;
59024;SDS011;44806;48.008;13.666;2023-10-31T06:19:14;0.25;;;0.10;;
59024;SDS011;44806;48.008;13.666;2023-10-31T06:21:41;0.40;;;0.22;;
59024;SDS011;44806;48.008;13.666;2023-10-31T06:24:08;1.48;;;0.28;;
59024;SDS011;44806;48.008;13.666;2023-10-31T06:26:36;2.60;;;0.10;;
59024;SDS011;44806;48.008;13.666;2023-10-31T06:29:04;0.70;;;0.30;;
59024;SDS011;44806;48.008;13.666;2023-10-31T06:31:31;0.52;;;0.13;;
59024;SDS011;44806;48.008;13.666;2023-10-31T06:33:58;1.65;;;0.50;;
59024;SDS011;44806;48.008;13.666;2023-10-31T06:36:25;0.40;;;0.13;;
59024;SDS011;44806;48.008;13.666;2023-10-31T06:38:52;2.40;;;0.63;;
59024;SDS011;44806;48.008;13.666;2023-10-31T06:41:19;0.93;;;0.22;;
59024;SDS011;44806;48.008;13.666;2023-10-31T06:43:47;3.40;;;0.60;;
59024;SDS011;44806;48.008;13.666;2023-10-31T06:46:14;1.17;;;0.35;;
59024;SDS011;44806;48.008;13.666;2023-10-31T06:48:41;0.57;;;0.28;;
59024;SDS011;44806;48.008;13.666;2023-10-31T06:51:08;2.53;;;0.40;;
59024;SDS011;44806;48.008;13.666;2023-10-31T06:53:35;1.77;;;0.40;;
59024;SDS011;44806;48.008;13.666;2023-10-31T06:56:02;0.98;;;0.32;;
59024;SDS011;44806;48.008;13.666;2023-10-31T06:58:29;0.20;;;0.10;;
59024;SDS011;44806;48.008;13.666;2023-10-31T07:00:58;1.55;;;0.45;;
59024;SDS011;44806;48.008;13.666;2023-10-31T07:03:25;0.88;;;0.20;;
59024;SDS011;44806;48.008;13.666;2023-10-31T07:05:52;1.23;;;0.30;;
59024;SDS011;44806;48.008;13.666;2023-10-31T07:08:21;0.75;;;0.30;;
59024;SDS011;44806;48.008;13.666;2023-10-31T07:10:48;0.98;;;0.30;;
59024;SDS011;44806;48.008;13.666;2023-10-31T07:13:15;1.02;;;0.22;;
59024;SDS011;44806;48.008;13.666;2023-10-31T07:15:42;1.00;;;0.20;;
59024;SDS011;44806;48.008;13.666;2023-10-31T07:18:11;0.68;;;0.10;;
59024;SDS011;44806;48.008;13.666;2023-10-31T07:20:38;0.93;;;0.20;;
59024;SDS011;44806;48.008;13.666;2023-10-31T07:23:04;0.32;;;0.20;;
59024;SDS011;44806;48.008;13.666;2023-10-31T07:25:31;0.28;;;0.20;;
59024;SDS011;44806;48.008;13.666;2023-10-31T07:27:58;1.15;;;0.20;;
59024;SDS011;44806;48.008;13.666;2023-10-31T07:30:25;0.85;;;0.17;;
59024;SDS011;44806;48.008;13.666;2023-10-31T07:32:53;0.55;;;0.25;;
59024;SDS011;44806;48.008;13.666;2023-10-31T07:35:21;2.28;;;0.20;;
59024;SDS011;44806;48.008;13.666;2023-10-31T07:37:48;0.85;;;0.20;;
59024;SDS011;44806;48.008;13.666;2023-10-31T07:40:15;1.65;;;0.50;;
59024;SDS011;44806;48.008;13.666;2023-10-31T07:42:42;2.50;;;0.50;;
59024;SDS011;44806;48.008;13.666;2023-10-31T07:45:09;1.50;;;0.40;;
59024;SDS011;44806;48.008;13.666;2023-10-31T07:47:36;4.43;;;0.82;;
59024;SDS011;44806;48.008;13.666;2023-10-31T07:50:04;1.75;;;0.40;;
59024;SDS011;44806;48.008;13.666;2023-10-31T07:52:32;5.93;;;0.60;;
59024;SDS011;44806;48.008;13.666;2023-10-31T07:54:59;1.30;;;0.30;;
59024;SDS011;44806;48.008;13.666;2023-10-31T07:57:26;0.70;;;0.20;;
59024;SDS011;44806;48.008;13.666;2023-10-31T07:59:53;1.85;;;0.40;;
59024;SDS011;44806;48.008;13.666;2023-10-31T08:02:20;0.22;;;0.20;;
59024;SDS011;44806;48.008;13.666;2023-10-31T08:04:47;1.23;;;0.30;;
59024;SDS011;44806;48.008;13.666;2023-10-31T08:07:14;2.15;;;0.60;;
59024;SDS011;44806;48.008;13.666;2023-10-31T08:09:42;3.78;;;0.50;;
59024;SDS011;44806;48.008;13.666;2023-10-31T08:12:09;2.88;;;0.68;;
59024;SDS011;44806;48.008;13.666;2023-10-31T08:14:36;1.05;;;0.40;;
59024;SDS011;44806;48.008;13.666;2023-10-31T08:17:03;1.95;;;0.52;;
59024;SDS011;44806;48.008;13.666;2023-10-31T08:19:30;2.60;;;0.50;;
59024;SDS011;44806;48.008;13.666;2023-10-31T08:21:57;1.92;;;0.50;;
59024;SDS011;44806;48.008;13.666;2023-10-31T08:24:24;2.70;;;0.95;;
59024;SDS011;44806;48.008;13.666;2023-10-31T08:26:53;1.45;;;0.20;;
59024;SDS011;44806;48.008;13.666;2023-10-31T08:29:19;1.17;;;0.35;;
59024;SDS011;44806;48.008;13.666;2023-10-31T08:31:46;3.35;;;0.52;;
59024;SDS011;44806;48.008;13.666;2023-10-31T08:34:13;0.30;;;0.22;;
59024;SDS011;44806;48.008;13.666;2023-10-31T08:36:40;2.45;;;0.57;;
59024;SDS011;44806;48.008;13.666;2023-10-31T08:39:07;1.05;;;0.38;;
59024;SDS011;44806;48.008;13.666;2023-10-31T08:41:34;2.17;;;0.32;;
59024;SDS011;44806;48.008;13.666;2023-10-31T08:44:03;0.45;;;0.20;;
59024;SDS011;44806;48.008;13.666;2023-10-31T08:46:31;3.00;;;0.32;;
59024;SDS011;44806;48.008;13.666;2023-10-31T08:48:57;1.15;;;0.38;;
59024;SDS011;44806;48.008;13.666;2023-10-31T08:51:25;0.85;;;0.40;;
59024;SDS011;44806;48.008;13.666;2023-10-31T08:53:52;1.10;;;0.52;;
59024;SDS011;44806;48.008;13.666;2023-10-31T08:56:19;1.00;;;0.38;;
59024;SDS011;44806;48.008;13.666;2023-10-31T08:58:46;2.92;;;0.30;;
59024;SDS011;44806;48.008;13.666;2023-10-31T09:01:14;0.50;;;0.22;;
59024;SDS011;44806;48.008;13.666;2023-10-31T09:03:41;1.20;;;0.38;;
59024;SDS011;44806;48.008;13.666;2023-10-31T09:06:08;0.85;;;0.30;;
59024;SDS011;44806;48.008;13.666;2023-10-31T09:08:35;0.93;;;0.30;;
59024;SDS011;44806;48.008;13.666;2023-10-31T09:11:03;1.58;;;0.30;;
59024;SDS011;44806;48.008;13.666;2023-10-31T09:13:31;0.57;;;0.30;;
59024;SDS011;44806;48.008;13.666;2023-10-31T09:15:57;0.40;;;0.13;;
59024;SDS011;44806;48.008;13.666;2023-10-31T09:18:27;0.40;;;0.25;;
59024;SDS011;44806;48.008;13.666;2023-10-31T09:20:53;0.10;;;0.10;;
59024;SDS011;44806;48.008;13.666;2023-10-31T09:23:21;1.15;;;0.22;;
59024;SDS011;44806;48.008;13.666;2023-10-31T09:25:47;1.02;;;0.30;;
59024;SDS011;44806;48.008;13.666;2023-10-31T09:28:14;3.58;;;0.40;;
59024;SDS011;44806;48.008;13.666;2023-10-31T09:30:41;0.65;;;0.22;;
59024;SDS011;44806;48.008;13.666;2023-10-31T09:33:08;2.90;;;0.22;;
59024;SDS011;44806;48.008;13.666;2023-10-31T09:35:37;1.00;;;0.40;;
59024;SDS011;44806;48.008;13.666;2023-10-31T09:38:04;0.85;;;0.32;;
59024;SDS011;44806;48.008;13.666;2023-10-31T09:40:31;1.13;;;0.20;;
59024;SDS011;44806;48.008;13.666;2023-10-31T09:42:58;2.03;;;0.47;;
59024;SDS011;44806;48.008;13.666;2023-10-31T09:45:25;0.50;;;0.10;;
59024;SDS011;44806;48.008;13.666;2023-10-31T09:47:52;2.08;;;0.32;;
59024;SDS011;44806;48.008;13.666;2023-10-31T09:50:20;1.13;;;0.20;;
59024;SDS011;44806;48.008;13.666;2023-10-31T09:52:48;1.85;;;0.30;;
59024;SDS011;44806;48.008;13.666;2023-10-31T09:55:17;4.72;;;1.23;;
59024;SDS011;44806;48.008;13.666;2023-10-31T09:57:44;2.33;;;0.50;;
59024;SDS011;44806;48.008;13.666;2023-10-31T10:00:12;1.95;;;0.30;;
59024;SDS011;44806;48.008;13.666;2023-10-31T10:02:39;0.08;;;0.08;;
59024;SDS011;44806;48.008;13.666;2023-10-31T10:05:07;1.20;;;0.30;;
59024;SDS011;44806;48.008;13.666;2023-10-31T10:07:35;1.23;;;0.32;;
59024;SDS011;44806;48.008;13.666;2023-10-31T10:10:04;1.42;;;0.38;;
59024;SDS011;44806;48.008;13.666;2023-10-31T10:12:31;1.75;;;0.40;;
59024;SDS011;44806;48.008;13.666;2023-10-31T10:14:58;6.70;;;0.43;;
59024;SDS011;44806;48.008;13.666;2023-10-31T10:17:25;1.13;;;0.40;;
59024;SDS011;44806;48.008;13.666;2023-10-31T10:20:04;0.40;;;0.10;;
59024;SDS011;44806;48.008;13.666;2023-10-31T10:22:36;0.73;;;0.40;;
59024;SDS011;44806;48.008;13.666;2023-10-31T10:25:05;2.90;;;0.57;;
59024;SDS011;44806;48.008;13.666;2023-10-31T10:27:33;2.72;;;0.80;;
59024;SDS011;44806;48.008;13.666;2023-10-31T10:30:01;2.70;;;0.70;;
59024;SDS011;44806;48.008;13.666;2023-10-31T10:32:28;2.00;;;0.60;;
59024;SDS011;44806;48.008;13.666;2023-10-31T10:34:55;0.90;;;0.52;;
59024;SDS011;44806;48.008;13.666;2023-10-31T10:37:22;0.20;;;0.10;;
59024;SDS011;44806;48.008;13.666;2023-10-31T10:39:52;0.73;;;0.20;;
59024;SDS011;44806;48.008;13.666;2023-10-31T10:42:24;0.93;;;0.40;;
59024;SDS011;44806;48.008;13.666;2023-10-31T10:44:58;1.73;;;0.43;;
59024;SDS011;44806;48.008;13.666;2023-10-31T10:47:29;0.60;;;0.22;;
59024;SDS011;44806;48.008;13.666;2023-10-31T10:49:58;0.25;;;0.10;;
59024;SDS011;44806;48.008;13.666;2023-10-31T10:52:28;1.13;;;0.38;;
59024;SDS011;44806;48.008;13.666;2023-10-31T10:55:00;1.02;;;0.20;;
59024;SDS011;44806;48.008;13.666;2023-10-31T10:57:36;3.80;;;0.60;;
59024;SDS011;44806;48.008;13.666;2023-10-31T11:00:07;0.93;;;0.20;;
59024;SDS011;44806;48.008;13.666;2023-10-31T11:02:38;1.17;;;0.40;;
59024;SDS011;44806;48.008;13.666;2023-10-31T11:05:07;0.93;;;0.30;;
59024;SDS011;44806;48.008;13.666;2023-10-31T11:07:36;1.20;;;0.32;;
59024;SDS011;44806;48.008;13.666;2023-10-31T11:10:04;3.90;;;0.40;;
59024;SDS011;44806;48.008;13.666;2023-10-31T11:12:32;1.15;;;0.20;;
59024;SDS011;44806;48.008;13.666;2023-10-31T11:15:01;1.38;;;0.40;;
59024;SDS011;44806;48.008;13.666;2023-10-31T11:17:30;1.08;;;0.28;;
59024;SDS011;44806;48.008;13.666;2023-10-31T11:20:01;0.20;;;0.10;;
59024;SDS011;44806;48.008;13.666;2023-10-31T11:22:36;0.52;;;0.20;;
59024;SDS011;44806;48.008;13.666;2023-10-31T11:25:06;1.02;;;0.20;;
59024;SDS011;44806;48.008;13.666;2023-10-31T11:27:33;0.98;;;0.20;;
59024;SDS011;44806;48.008;13.666;2023-10-31T11:30:02;0.30;;;0.20;;
59024;SDS011;44806;48.008;13.666;2023-10-31T11:32:32;0.77;;;0.30;;
59024;SDS011;44806;48.008;13.666;2023-10-31T11:34:59;1.27;;;0.43;;
59024;SDS011;44806;48.008;13.666;2023-10-31T11:37:31;0.60;;;0.20;;
59024;SDS011;44806;48.008;13.666;2023-10-31T11:40:15;1.48;;;0.63;;
59024;SDS011;44806;48.008;13.666;2023-10-31T11:42:48;0.95;;;0.30;;
59024;SDS011;44806;48.008;13.666;2023-10-31T11:45:27;1.40;;;0.45;;
59024;SDS011;44806;48.008;13.666;2023-10-31T11:47:55;2.08;;;0.55;;
59024;SDS011;44806;48.008;13.666;2023-10-31T11:50:25;1.85;;;0.40;;
59024;SDS011;44806;48.008;13.666;2023-10-31T11:55:42;1.60;;;0.35;;
59024;SDS011;44806;48.008;13.666;2023-10-31T11:58:12;2.58;;;0.50;;
59024;SDS011;44806;48.008;13.666;2023-10-31T12:00:44;1.23;;;0.40;;
59024;SDS011;44806;48.008;13.666;2023-10-31T12:03:14;2.47;;;0.30;;
59024;SDS011;44806;48.008;13.666;2023-10-31T12:05:50;1.15;;;0.40;;
59024;SDS011;44806;48.008;13.666;2023-10-31T12:08:23;1.77;;;0.73;;
59024;SDS011;44806;48.008;13.666;2023-10-31T12:10:51;1.63;;;0.43;;
59024;SDS011;44806;48.008;13.666;2023-10-31T12:13:18;2.72;;;0.75;;
59024;SDS011;44806;48.008;13.666;2023-10-31T12:15:52;8.98;;;1.48;;
59024;SDS011;44806;48.008;13.666;2023-10-31T12:18:19;3.53;;;1.15;;
59024;SDS011;44806;48.008;13.666;2023-10-31T12:20:47;2.58;;;0.80;;
59024;SDS011;44806;48.008;13.666;2023-10-31T12:23:14;1.52;;;0.40;;
59024;SDS011;44806;48.008;13.666;2023-10-31T12:25:45;3.00;;;0.65;;
59024;SDS011;44806;48.008;13.666;2023-10-31T12:28:16;6.03;;;2.67;;
59024;SDS011;44806;48.008;13.666;2023-10-31T12:30:46;6.32;;;1.45;;
59024;SDS011;44806;48.008;13.666;2023-10-31T12:33:16;4.90;;;2.35;;
59024;SDS011;44806;48.008;13.666;2023-10-31T12:35:43;6.82;;;3.15;;
59024;SDS011;44806;48.008;13.666;2023-10-31T12:38:10;8.30;;;3.83;;
59024;SDS011;44806;48.008;13.666;2023-10-31T12:40:39;9.10;;;3.22;;
59024;SDS011;44806;48.008;13.666;2023-10-31T12:43:08;4.35;;;1.75;;
59024;SDS011;44806;48.008;13.666;2023-10-31T12:45:36;10.75;;;4.10;;
59024;SDS011;44806;48.008;13.666;2023-10-31T12:48:03;2.22;;;0.70;;
59024;SDS011;44806;48.008;13.666;2023-10-31T12:50:33;2.47;;;0.70;;
59024;SDS011;44806;48.008;13.666;2023-10-31T12:53:02;3.97;;;0.80;;
59024;SDS011;44806;48.008;13.666;2023-10-31T12:55:29;1.52;;;0.43;;
59024;SDS011;44806;48.008;13.666;2023-10-31T12:57:57;6.03;;;2.33;;
59024;SDS011;44806;48.008;13.666;2023-10-31T13:00:30;0.70;;;0.30;;
59024;SDS011;44806;48.008;13.666;2023-10-31T13:03:00;2.85;;;1.27;;
59024;SDS011;44806;48.008;13.666;2023-10-31T13:05:29;2.95;;;1.05;;
59024;SDS011;44806;48.008;13.666;2023-10-31T13:07:59;2.88;;;0.65;;
59024;SDS011;44806;48.008;13.666;2023-10-31T13:10:29;1.55;;;0.65;;
59024;SDS011;44806;48.008;13.666;2023-10-31T13:12:57;3.58;;;1.27;;
59024;SDS011;44806;48.008;13.666;2023-10-31T13:15:25;3.00;;;1.15;;
59024;SDS011;44806;48.008;13.666;2023-10-31T13:17:51;1.90;;;1.00;;
59024;SDS011;44806;48.008;13.666;2023-10-31T13:20:19;6.32;;;2.53;;
59024;SDS011;44806;48.008;13.666;2023-10-31T13:22:47;12.88;;;2.75;;
59024;SDS011;44806;48.008;13.666;2023-10-31T13:25:15;7.07;;;2.95;;
59024;SDS011;44806;48.008;13.666;2023-10-31T13:27:43;4.75;;;1.13;;
59024;SDS011;44806;48.008;13.666;2023-10-31T13:30:15;3.92;;;1.13;;
59024;SDS011;44806;48.008;13.666;2023-10-31T13:32:43;2.00;;;0.75;;
59024;SDS011;44806;48.008;13.666;2023-10-31T13:35:10;4.72;;;1.90;;
59024;SDS011;44806;48.008;13.666;2023-10-31T13:37:39;10.15;;;4.57;;
59024;SDS011;44806;48.008;13.666;2023-10-31T13:40:06;15.95;;;6.30;;
59024;SDS011;44806;48.008;13.666;2023-10-31T13:42:36;18.13;;;7.63;;
59024;SDS011;44806;48.008;13.666;2023-10-31T13:45:03;13.63;;;6.82;;
59024;SDS011;44806;48.008;13.666;2023-10-31T13:47:30;18.35;;;8.85;;
59024;SDS011;44806;48.008;13.666;2023-10-31T13:49:58;6.80;;;2.88;;
59024;SDS011;44806;48.008;13.666;2023-10-31T13:52:25;6.80;;;2.95;;
59024;SDS011;44806;48.008;13.666;2023-10-31T13:54:52;19.13;;;8.80;;
59024;SDS011;44806;48.008;13.666;2023-10-31T13:57:21;10.60;;;4.20;;
59024;SDS011;44806;48.008;13.666;2023-10-31T13:59:49;10.02;;;3.58;;
59024;SDS011;44806;48.008;13.666;2023-10-31T14:02:17;4.32;;;1.58;;
59024;SDS011;44806;48.008;13.666;2023-10-31T14:04:44;14.02;;;4.82;;
59024;SDS011;44806;48.008;13.666;2023-10-31T14:07:12;4.75;;;1.80;;
59024;SDS011;44806;48.008;13.666;2023-10-31T14:09:46;9.00;;;2.60;;
59024;SDS011;44806;48.008;13.666;2023-10-31T14:12:14;5.85;;;1.83;;
59024;SDS011;44806;48.008;13.666;2023-10-31T14:14:41;12.85;;;4.93;;
59024;SDS011;44806;48.008;13.666;2023-10-31T14:17:09;5.70;;;1.83;;
59024;SDS011;44806;48.008;13.666;2023-10-31T14:19:36;9.20;;;3.28;;
59024;SDS011;44806;48.008;13.666;2023-10-31T14:22:03;10.85;;;3.53;;
59024;SDS011;44806;48.008;13.666;2023-10-31T14:24:30;1.20;;;0.52;;
59024;SDS011;44806;48.008;13.666;2023-10-31T14:26:58;5.82;;;0.60;;
59024;SDS011;44806;48.008;13.666;2023-10-31T14:29:25;9.02;;;3.10;;
59024;SDS011;44806;48.008;13.666;2023-10-31T14:31:52;3.40;;;1.20;;
59024;SDS011;44806;48.008;13.666;2023-10-31T14:34:21;3.05;;;0.88;;
59024;SDS011;44806;48.008;13.666;2023-10-31T14:36:48;2.85;;;0.50;;
59024;SDS011;44806;48.008;13.666;2023-10-31T14:39:15;3.65;;;0.60;;
59024;SDS011;44806;48.008;13.666;2023-10-31T14:41:42;2.42;;;0.80;;